createdAt,value
2023-04-17T00:01:07.674Z,5.72
2023-04-17T00:03:37.969Z,4.75
2023-04-17T00:06:06.661Z,4.85
2023-04-17T00:08:35.300Z,4.43
2023-04-17T00:11:07.915Z,4.45
2023-04-17T00:13:37.627Z,5.03
2023-04-17T00:16:06.361Z,4.38
2023-04-17T00:18:34.621Z,4.22
2023-04-17T00:21:04.604Z,3.83
2023-04-17T00:23:33.106Z,4.22
2023-04-17T00:26:01.475Z,3.78
2023-04-17T00:28:29.779Z,3.63
2023-04-17T00:30:59.029Z,3.65
2023-04-17T00:33:27.262Z,5.00
2023-04-17T00:35:55.552Z,6.28
2023-04-17T00:38:25.211Z,4.55
2023-04-17T00:40:53.610Z,5.97
2023-04-17T00:43:21.885Z,3.13
2023-04-17T00:45:50.507Z,5.43
2023-04-17T00:48:19.406Z,3.95
2023-04-17T00:50:47.686Z,3.78
2023-04-17T00:53:16.235Z,4.50
2023-04-17T00:55:46.241Z,4.18
2023-04-17T00:58:14.723Z,3.78
2023-04-17T01:00:42.982Z,4.25
2023-04-17T01:03:12.020Z,3.22
2023-04-17T01:05:40.786Z,3.80
2023-04-17T01:08:09.046Z,3.55
2023-04-17T01:10:37.418Z,4.82
2023-04-17T01:13:07.943Z,3.85
2023-04-17T01:15:37.400Z,3.55
2023-04-17T01:18:06.570Z,4.00
2023-04-17T01:20:34.960Z,4.25
2023-04-17T01:23:03.265Z,3.72
2023-04-17T01:25:32.849Z,3.08
2023-04-17T01:28:01.654Z,3.65
2023-04-17T01:30:29.922Z,3.58
2023-04-17T01:32:58.238Z,4.10
2023-04-17T01:35:26.524Z,4.05
2023-04-17T01:37:54.748Z,4.55
2023-04-17T01:40:24.918Z,4.45
2023-04-17T01:42:55.140Z,5.00
2023-04-17T01:45:23.361Z,3.95
2023-04-17T01:47:51.648Z,4.90
2023-04-17T01:50:20.090Z,5.18
2023-04-17T01:52:48.366Z,5.80
2023-04-17T01:55:16.608Z,5.93
2023-04-17T01:57:44.915Z,6.63
2023-04-17T02:00:15.514Z,7.43
2023-04-17T02:05:12.102Z,8.80
2023-04-17T02:07:40.345Z,6.88
2023-04-17T02:10:09.624Z,6.55
2023-04-17T02:12:37.876Z,9.75
2023-04-17T02:15:07.429Z,9.18
2023-04-17T02:17:37.053Z,13.65
2023-04-17T02:20:07.519Z,8.60
2023-04-17T02:22:35.879Z,14.02
2023-04-17T02:25:04.307Z,9.38
2023-04-17T02:27:32.646Z,9.48
2023-04-17T02:30:01.095Z,8.45
2023-04-17T02:32:29.382Z,11.68
2023-04-17T02:34:59.085Z,9.70
2023-04-17T02:37:27.339Z,12.30
2023-04-17T02:39:55.813Z,12.23
2023-04-17T02:42:24.177Z,11.05
2023-04-17T02:44:53.812Z,15.98
2023-04-17T02:47:23.149Z,15.10
2023-04-17T02:49:51.668Z,13.85
2023-04-17T02:52:21.352Z,15.32
2023-04-17T02:54:49.710Z,20.70
2023-04-17T02:57:17.984Z,16.95
2023-04-17T02:59:46.231Z,15.48
2023-04-17T03:02:14.687Z,13.05
2023-04-17T03:04:44.104Z,23.10
2023-04-17T03:07:13.350Z,23.67
2023-04-17T03:09:42.966Z,20.30
2023-04-17T03:12:11.275Z,21.40
2023-04-17T03:14:39.533Z,16.58
2023-04-17T03:17:07.820Z,23.50
2023-04-17T03:19:36.130Z,15.55
2023-04-17T03:22:04.719Z,18.13
2023-04-17T03:24:33.111Z,22.05
2023-04-17T03:27:02.943Z,13.82
2023-04-17T03:29:31.362Z,18.33
2023-04-17T03:31:59.607Z,17.85
2023-04-17T03:34:29.114Z,26.63
2023-04-17T03:36:57.361Z,28.85
2023-04-17T03:39:25.677Z,17.90
2023-04-17T03:41:54.019Z,21.38
2023-04-17T03:44:23.691Z,24.02
2023-04-17T03:46:51.951Z,20.30
2023-04-17T03:49:20.191Z,24.20
2023-04-17T03:51:48.492Z,24.27
2023-04-17T03:54:16.711Z,21.55
2023-04-17T03:56:44.918Z,26.38
2023-04-17T03:59:13.343Z,20.80
2023-04-17T04:01:45.381Z,15.73
2023-04-17T04:04:14.969Z,21.33
2023-04-17T04:06:43.366Z,28.92
2023-04-17T04:09:11.904Z,25.20
2023-04-17T04:11:40.335Z,16.33
2023-04-17T04:14:08.587Z,21.02
2023-04-17T04:16:37.222Z,21.98
2023-04-17T04:19:06.948Z,19.83
2023-04-17T04:21:35.543Z,20.55
2023-04-17T04:24:03.808Z,21.42
2023-04-17T04:26:33.269Z,25.23
2023-04-17T04:29:01.605Z,24.40
2023-04-17T04:31:30.660Z,28.50
2023-04-17T04:34:01.342Z,31.75
2023-04-17T04:36:31.273Z,20.90
2023-04-17T04:39:01.021Z,30.95
2023-04-17T04:41:30.097Z,30.65
2023-04-17T04:43:58.476Z,16.60
2023-04-17T04:46:26.747Z,44.65
2023-04-17T04:48:55.052Z,22.13
2023-04-17T04:51:23.446Z,21.92
2023-04-17T04:53:53.040Z,24.88
2023-04-17T04:56:21.649Z,21.98
2023-04-17T04:58:49.877Z,21.10
2023-04-17T05:01:18.640Z,20.15
2023-04-17T05:03:47.078Z,19.27
2023-04-17T05:06:15.875Z,20.73
2023-04-17T05:08:45.079Z,23.60
2023-04-17T05:11:15.358Z,20.83
2023-04-17T05:13:43.662Z,20.92
2023-04-17T05:16:12.043Z,15.07
2023-04-17T05:18:40.277Z,21.63
2023-04-17T05:21:08.511Z,12.52
2023-04-17T05:23:36.805Z,21.65
2023-04-17T05:26:05.806Z,17.92
2023-04-17T05:28:35.622Z,19.27
2023-04-17T05:31:04.098Z,19.88
2023-04-17T05:33:32.416Z,21.77
2023-04-17T05:36:00.909Z,25.00
2023-04-17T05:38:29.227Z,22.88
2023-04-17T05:40:57.502Z,19.33
2023-04-17T05:43:25.815Z,20.55
2023-04-17T05:45:55.650Z,20.90
2023-04-17T05:48:24.118Z,19.83
2023-04-17T05:50:52.350Z,19.90
2023-04-17T05:53:20.714Z,17.45
2023-04-17T05:55:48.960Z,15.38
2023-04-17T05:58:23.909Z,14.70
2023-04-17T06:00:53.225Z,18.15
2023-04-17T06:03:23.640Z,16.35
2023-04-17T06:05:52.527Z,14.55
2023-04-17T06:08:21.575Z,16.10
2023-04-17T06:10:50.818Z,13.52
2023-04-17T06:13:19.569Z,17.52
2023-04-17T06:15:47.897Z,14.02
2023-04-17T06:18:17.559Z,14.70
2023-04-17T06:20:47.395Z,16.37
2023-04-17T06:23:15.710Z,13.55
2023-04-17T06:25:44.065Z,9.18
2023-04-17T06:28:12.305Z,14.70
2023-04-17T06:30:40.818Z,14.43
2023-04-17T06:33:09.219Z,13.98
2023-04-17T06:35:37.760Z,13.68
2023-04-17T06:38:08.979Z,17.33
2023-04-17T06:40:37.290Z,18.00
2023-04-17T06:43:05.554Z,14.32
2023-04-17T06:45:34.113Z,18.35
2023-04-17T06:48:02.474Z,17.52
2023-04-17T06:50:30.918Z,20.63
2023-04-17T06:52:59.178Z,17.63
2023-04-17T06:55:28.976Z,18.45
2023-04-17T06:57:57.268Z,19.98
2023-04-17T07:00:25.858Z,14.95
2023-04-17T07:02:54.302Z,17.13
2023-04-17T07:05:22.702Z,11.23
2023-04-17T07:07:50.985Z,20.00
2023-04-17T07:10:19.647Z,17.98
2023-04-17T07:12:49.344Z,18.27
2023-04-17T07:15:17.713Z,16.67
2023-04-17T07:17:46.067Z,9.93
2023-04-17T07:20:14.282Z,14.32
2023-04-17T07:22:43.250Z,12.80
2023-04-17T07:25:11.531Z,15.02
2023-04-17T07:27:39.788Z,16.23
2023-04-17T07:30:10.452Z,14.73
2023-04-17T07:35:07.745Z,16.60
2023-04-17T07:37:37.050Z,17.75
2023-04-17T07:40:10.300Z,18.20
2023-04-17T07:42:38.723Z,18.10
2023-04-17T07:45:10.038Z,15.75
2023-04-17T07:47:38.461Z,17.85
2023-04-17T07:50:08.116Z,5.72
2023-04-17T07:52:36.564Z,11.45
2023-04-17T07:55:05.253Z,14.77
2023-04-17T07:57:33.606Z,16.20
2023-04-17T08:00:02.005Z,13.98
2023-04-17T08:02:31.663Z,10.95
2023-04-17T08:05:01.610Z,13.53
2023-04-17T08:07:30.090Z,13.88
2023-04-17T08:09:58.349Z,16.75
2023-04-17T08:12:26.865Z,14.93
2023-04-17T08:14:55.272Z,13.80
2023-04-17T08:17:26.532Z,14.48
2023-04-17T08:19:57.528Z,16.70
2023-04-17T08:22:26.523Z,12.68
2023-04-17T08:24:57.920Z,12.07
2023-04-17T08:27:26.485Z,13.80
2023-04-17T08:29:55.585Z,10.27
2023-04-17T08:32:23.882Z,12.20
2023-04-17T08:34:52.671Z,13.00
2023-04-17T08:37:22.320Z,10.25
2023-04-17T08:39:52.495Z,13.10
2023-04-17T08:42:20.715Z,12.43
2023-04-17T08:44:49.157Z,12.52
2023-04-17T08:47:18.687Z,12.07
2023-04-17T08:49:47.330Z,12.35
2023-04-17T08:52:16.757Z,13.10
2023-04-17T08:54:48.342Z,11.70
2023-04-17T08:57:18.171Z,12.32
2023-04-17T08:59:46.917Z,12.52
2023-04-17T09:02:15.522Z,14.35
2023-04-17T09:04:45.317Z,12.07
2023-04-17T09:07:15.997Z,12.35
2023-04-17T09:09:52.861Z,12.32
2023-04-17T09:12:21.935Z,12.68
2023-04-17T09:14:50.536Z,11.32
2023-04-17T09:17:20.470Z,12.00
2023-04-17T09:20:04.074Z,13.68
2023-04-17T09:22:32.347Z,12.93
2023-04-17T09:25:02.438Z,12.43
2023-04-17T09:27:30.801Z,12.27
2023-04-17T09:30:00.923Z,13.38
2023-04-17T09:32:30.566Z,13.40
2023-04-17T09:35:00.322Z,11.40
2023-04-17T09:37:48.696Z,11.90
2023-04-17T09:40:19.132Z,11.60
2023-04-17T09:45:26.126Z,12.05
2023-04-17T09:47:56.786Z,12.13
2023-04-17T09:50:25.894Z,12.30
2023-04-17T09:52:55.118Z,11.43
2023-04-17T09:55:26.766Z,11.40
2023-04-17T09:57:56.629Z,13.30
2023-04-17T10:00:27.081Z,10.75
2023-04-17T10:05:26.063Z,11.75
2023-04-17T10:07:54.400Z,11.57
2023-04-17T10:10:25.319Z,12.18
2023-04-17T10:12:55.901Z,13.70
2023-04-17T10:17:53.067Z,11.57
2023-04-17T10:20:38.150Z,10.95
2023-04-17T10:23:34.643Z,13.30
2023-04-17T10:26:38.839Z,13.23
2023-04-17T10:29:08.537Z,13.32
2023-04-17T10:32:24.274Z,12.68
2023-04-17T10:34:53.625Z,13.07
2023-04-17T10:37:23.297Z,13.70
2023-04-17T10:39:54.200Z,14.95
2023-04-17T10:42:23.775Z,16.65
2023-04-17T10:44:58.720Z,16.87
2023-04-17T10:47:31.931Z,17.50
2023-04-17T10:50:01.072Z,17.65
2023-04-17T10:52:44.670Z,17.08
2023-04-17T10:55:17.433Z,18.45
2023-04-17T10:58:00.818Z,16.10
2023-04-17T11:00:33.109Z,18.02
2023-04-17T11:03:02.973Z,17.20
2023-04-17T11:05:32.275Z,19.48
2023-04-17T11:08:00.756Z,18.13
2023-04-17T11:10:29.191Z,17.52
2023-04-17T11:12:57.559Z,15.82
2023-04-17T11:15:29.460Z,15.52
2023-04-17T11:18:00.038Z,15.20
2023-04-17T11:20:30.485Z,14.05
2023-04-17T11:23:02.368Z,15.38
2023-04-17T11:25:33.764Z,15.63
2023-04-17T11:28:03.755Z,15.60
2023-04-17T11:30:33.529Z,14.02
2023-04-17T11:33:04.396Z,14.48
2023-04-17T11:35:34.504Z,14.55
2023-04-17T11:38:14.386Z,12.63
2023-04-17T11:40:47.171Z,10.95
2023-04-17T11:43:15.796Z,11.80
2023-04-17T11:45:45.887Z,11.07
2023-04-17T11:48:16.763Z,11.38
2023-04-17T11:50:45.772Z,10.50
2023-04-17T11:53:15.656Z,10.63
2023-04-17T11:55:44.609Z,10.68
2023-04-17T11:58:14.119Z,11.13
2023-04-17T12:00:43.520Z,11.88
2023-04-17T12:03:35.777Z,12.38
2023-04-17T12:06:05.929Z,11.23
2023-04-17T12:08:43.716Z,12.32
2023-04-17T12:11:19.641Z,11.68
2023-04-17T12:13:48.177Z,11.40
2023-04-17T12:16:16.521Z,11.32
2023-04-17T12:18:46.735Z,10.45
2023-04-17T12:21:15.366Z,10.10
2023-04-17T12:23:43.980Z,10.75
2023-04-17T12:26:12.325Z,9.93
2023-04-17T12:28:40.705Z,10.02
2023-04-17T12:31:08.999Z,9.95
2023-04-17T12:33:37.376Z,9.32
2023-04-17T12:36:08.093Z,11.65
2023-04-17T12:38:36.475Z,10.52
2023-04-17T12:41:04.753Z,9.98
2023-04-17T12:43:33.691Z,10.60
2023-04-17T12:46:02.960Z,9.50
2023-04-17T12:48:33.003Z,9.95
2023-04-17T12:51:01.681Z,10.32
2023-04-17T12:53:36.317Z,8.60
2023-04-17T12:56:09.256Z,9.25
2023-04-17T12:58:54.833Z,9.55
2023-04-17T13:01:23.469Z,9.82
2023-04-17T13:03:52.065Z,9.02
2023-04-17T13:06:21.513Z,8.77
2023-04-17T13:08:51.199Z,8.30
2023-04-17T13:11:19.476Z,8.70
2023-04-17T13:13:47.744Z,8.52
2023-04-17T13:16:16.039Z,8.43
2023-04-17T13:18:44.426Z,9.82
2023-04-17T13:21:12.729Z,7.82
2023-04-17T13:23:40.952Z,7.70
2023-04-17T13:26:10.626Z,8.88
2023-04-17T13:28:39.862Z,8.23
2023-04-17T13:31:08.252Z,8.25
2023-04-17T13:33:36.698Z,9.40
2023-04-17T13:36:05.539Z,8.68
2023-04-17T13:38:34.113Z,8.85
2023-04-17T13:41:02.452Z,8.00
2023-04-17T13:43:32.134Z,9.35
2023-04-17T13:46:00.412Z,8.85
2023-04-17T13:48:28.766Z,8.52
2023-04-17T13:50:56.977Z,7.20
2023-04-17T13:53:25.257Z,8.55
2023-04-17T13:55:53.568Z,8.38
2023-04-17T13:58:21.829Z,8.00
2023-04-17T14:00:51.721Z,7.80
2023-04-17T14:03:20.162Z,8.50
2023-04-17T14:05:48.577Z,9.15
2023-04-17T14:08:16.942Z,9.43
2023-04-17T14:10:45.250Z,7.97
2023-04-17T14:13:13.460Z,8.57
2023-04-17T14:15:41.981Z,8.48
2023-04-17T14:18:11.655Z,8.82
2023-04-17T14:20:40.718Z,7.50
2023-04-17T14:23:08.996Z,9.82
2023-04-17T14:25:37.264Z,9.32
2023-04-17T14:28:05.539Z,6.40
2023-04-17T14:30:33.911Z,7.40
2023-04-17T14:33:02.284Z,7.60
2023-04-17T14:35:32.927Z,6.82
2023-04-17T14:40:29.378Z,7.30
2023-04-17T14:42:57.626Z,7.55
2023-04-17T14:45:25.893Z,5.10
2023-04-17T14:47:54.253Z,5.55
2023-04-17T14:50:22.534Z,5.50
2023-04-17T14:52:52.542Z,3.22
2023-04-17T14:55:20.788Z,2.65
2023-04-17T14:57:49.064Z,4.18
2023-04-17T15:00:18.117Z,4.07
2023-04-17T15:02:46.636Z,3.97
2023-04-17T15:05:18.805Z,4.13
2023-04-17T15:07:47.233Z,6.05
2023-04-17T15:10:17.309Z,6.40
2023-04-17T15:12:45.598Z,5.95
2023-04-17T15:15:13.879Z,4.95
2023-04-17T15:17:42.397Z,5.30
2023-04-17T15:20:11.163Z,4.93
2023-04-17T15:22:39.395Z,5.85
2023-04-17T15:25:08.168Z,4.15
2023-04-17T15:27:37.798Z,2.92
2023-04-17T15:30:08.879Z,6.30
2023-04-17T15:32:37.455Z,4.07
2023-04-17T15:35:06.516Z,4.57
2023-04-17T15:37:34.856Z,7.70
2023-04-17T15:40:03.427Z,4.38
2023-04-17T15:42:31.803Z,5.53
2023-04-17T15:45:02.236Z,5.38
2023-04-17T15:47:30.520Z,4.82
2023-04-17T15:49:58.920Z,6.53
2023-04-17T15:52:27.218Z,3.67
2023-04-17T15:54:55.513Z,6.13
2023-04-17T15:57:24.249Z,7.90
2023-04-17T15:59:52.513Z,5.22
2023-04-17T16:02:22.314Z,6.38
2023-04-17T16:04:50.637Z,3.70
2023-04-17T16:07:19.970Z,3.20
2023-04-17T16:09:48.287Z,6.38
2023-04-17T16:12:16.529Z,5.90
2023-04-17T16:14:44.883Z,9.20
2023-04-17T16:17:13.117Z,5.00
2023-04-17T16:19:42.770Z,4.82
2023-04-17T16:22:11.046Z,5.43
2023-04-17T16:24:39.368Z,4.63
2023-04-17T16:27:07.663Z,4.68
2023-04-17T16:29:36.012Z,5.32
2023-04-17T16:32:04.298Z,4.65
2023-04-17T16:34:32.629Z,3.72
2023-04-17T16:37:03.376Z,4.13
2023-04-17T16:39:31.692Z,4.60
2023-04-17T16:41:59.992Z,4.80
2023-04-17T16:44:28.758Z,5.18
2023-04-17T16:49:28.763Z,4.82
2023-04-17T16:51:56.957Z,4.70
2023-04-17T16:54:26.608Z,5.55
2023-04-17T16:56:54.897Z,3.57
2023-04-17T16:59:23.246Z,4.30
2023-04-17T17:01:52.712Z,4.30
2023-04-17T17:04:21.067Z,4.68
2023-04-17T17:06:49.356Z,6.40
2023-04-17T17:09:17.708Z,4.70
2023-04-17T17:11:47.455Z,5.95
2023-04-17T17:14:16.273Z,4.53
2023-04-17T17:16:45.379Z,7.32
2023-04-17T17:19:14.698Z,7.35
2023-04-17T17:21:43.811Z,5.10
2023-04-17T17:24:12.097Z,4.97
2023-04-17T17:26:40.400Z,4.80
2023-04-17T17:29:10.098Z,4.45
2023-04-17T17:31:38.606Z,4.90
2023-04-17T17:34:22.498Z,5.50
2023-04-17T17:36:54.764Z,4.97
2023-04-17T17:39:23.148Z,5.55
2023-04-17T17:41:51.529Z,5.30
2023-04-17T17:44:33.975Z,6.32
2023-04-17T17:47:03.847Z,9.80
2023-04-17T17:49:33.345Z,6.20
2023-04-17T17:52:01.719Z,8.88
2023-04-17T17:54:29.945Z,7.38
2023-04-17T17:56:58.142Z,8.65
2023-04-17T17:59:26.751Z,8.20
2023-04-17T18:01:57.377Z,6.57
2023-04-17T18:04:26.070Z,7.32
2023-04-17T18:06:54.765Z,6.53
2023-04-17T18:09:23.009Z,6.60
2023-04-17T18:11:51.297Z,7.22
2023-04-17T18:14:19.571Z,7.57
2023-04-17T18:16:48.517Z,8.27
2023-04-17T18:19:18.199Z,5.93
2023-04-17T18:21:47.779Z,7.30
2023-04-17T18:24:16.222Z,6.60
2023-04-17T18:26:44.619Z,8.05
2023-04-17T18:29:12.832Z,7.50
2023-04-17T18:31:41.100Z,7.63
2023-04-17T18:34:09.890Z,8.27
2023-04-17T18:36:39.514Z,7.40
2023-04-17T18:39:07.788Z,6.97
2023-04-17T18:41:36.009Z,7.32
2023-04-17T18:44:04.217Z,8.40
2023-04-17T18:46:32.493Z,8.57
2023-04-17T18:49:00.834Z,7.38
2023-04-17T18:51:29.203Z,7.68
2023-04-17T18:53:58.888Z,7.43
2023-04-17T18:56:27.220Z,7.53
2023-04-17T18:58:55.512Z,7.93
2023-04-17T19:01:23.860Z,7.47
2023-04-17T19:03:52.989Z,5.90
2023-04-17T19:06:21.324Z,6.93
2023-04-17T19:08:49.545Z,7.65
2023-04-17T19:11:19.565Z,6.43
2023-04-17T19:13:47.880Z,7.35
2023-04-17T19:16:16.165Z,8.38
2023-04-17T19:18:44.481Z,6.35
2023-04-17T19:21:12.836Z,7.90
2023-04-17T19:23:41.266Z,6.97
2023-04-17T19:26:10.157Z,8.07
2023-04-17T19:28:39.818Z,8.95
2023-04-17T19:31:08.300Z,6.77
2023-04-17T19:33:36.795Z,9.02
2023-04-17T19:36:05.203Z,8.50
2023-04-17T19:38:33.610Z,7.85
2023-04-17T19:41:14.510Z,7.60
2023-04-17T19:43:44.347Z,6.72
2023-04-17T19:46:14.288Z,8.25
2023-04-17T19:48:44.779Z,7.63
2023-04-17T19:51:14.337Z,9.15
2023-04-17T19:53:43.983Z,13.15
2023-04-17T19:56:12.263Z,8.93
2023-04-17T19:58:41.429Z,12.18
2023-04-17T20:01:11.198Z,10.10
2023-04-17T20:03:42.190Z,9.20
2023-04-17T20:06:10.695Z,13.00
2023-04-17T20:08:38.922Z,10.73
2023-04-17T20:11:07.331Z,10.18
2023-04-17T20:13:35.783Z,9.18
2023-04-17T20:16:04.052Z,10.05
2023-04-17T20:18:37.403Z,9.88
2023-04-17T20:21:07.151Z,9.55
2023-04-17T20:23:35.541Z,9.00
2023-04-17T20:26:03.929Z,9.35
2023-04-17T20:28:32.157Z,8.50
2023-04-17T20:31:00.625Z,8.52
2023-04-17T20:33:29.018Z,9.43
2023-04-17T20:35:58.753Z,9.52
2023-04-17T20:38:26.991Z,9.03
2023-04-17T20:40:55.273Z,8.80
2023-04-17T20:43:23.490Z,10.82
2023-04-17T20:45:51.788Z,7.88
2023-04-17T20:48:20.094Z,7.72
2023-04-17T20:50:48.378Z,8.05
2023-04-17T20:53:18.061Z,8.38
2023-04-17T20:55:47.189Z,6.33
2023-04-17T20:58:15.548Z,8.82
2023-04-17T21:00:54.301Z,6.80
2023-04-17T21:03:30.176Z,6.38
2023-04-17T21:05:58.592Z,6.38
2023-04-17T21:08:28.243Z,5.40
2023-04-17T21:10:56.639Z,5.03
2023-04-17T21:13:25.026Z,5.60
2023-04-17T21:15:53.452Z,5.10
2023-04-17T21:18:21.812Z,5.63
2023-04-17T21:20:50.044Z,3.10
2023-04-17T21:23:18.728Z,5.50
2023-04-17T21:25:50.482Z,4.53
2023-04-17T21:28:18.761Z,2.92
2023-04-17T21:30:47.129Z,3.13
2023-04-17T21:33:15.410Z,4.18
2023-04-17T21:35:43.637Z,4.68
2023-04-17T21:38:11.977Z,4.05
2023-04-17T21:40:50.625Z,3.90
2023-04-17T21:43:20.881Z,2.80
2023-04-17T21:45:49.983Z,4.63
2023-04-17T21:48:18.483Z,3.60
2023-04-17T21:50:46.736Z,4.82
2023-04-17T21:53:15.037Z,3.65
2023-04-17T21:55:43.318Z,4.65
2023-04-17T21:58:11.581Z,5.30
2023-04-17T22:00:41.329Z,4.38
2023-04-17T22:03:09.655Z,5.20
2023-04-17T22:05:38.089Z,5.07
2023-04-17T22:08:06.586Z,5.45
2023-04-17T22:10:34.973Z,5.78
2023-04-17T22:13:03.458Z,5.90
2023-04-17T22:15:32.000Z,5.00
2023-04-17T22:18:01.861Z,6.85
2023-04-17T22:20:30.151Z,4.78
2023-04-17T22:22:58.492Z,5.53
2023-04-17T22:25:26.766Z,6.07
2023-04-17T22:27:55.071Z,5.18
2023-04-17T22:30:23.434Z,5.57
2023-04-17T22:32:51.925Z,6.70
2023-04-17T22:35:21.552Z,6.38
2023-04-17T22:37:49.757Z,7.57
2023-04-17T22:40:18.213Z,5.93
2023-04-17T22:42:46.527Z,6.60
2023-04-17T22:45:14.882Z,5.32
2023-04-17T22:47:43.205Z,5.28
2023-04-17T22:50:11.773Z,4.40
2023-04-17T22:52:41.369Z,7.22
2023-04-17T22:55:09.853Z,6.07
2023-04-17T22:57:38.129Z,8.30
2023-04-17T23:00:08.762Z,5.97
2023-04-17T23:05:06.497Z,7.43
2023-04-17T23:07:34.901Z,7.47
2023-04-17T23:10:04.870Z,9.77
2023-04-17T23:12:33.207Z,7.85
2023-04-17T23:15:01.527Z,7.90
2023-04-17T23:17:29.857Z,4.95
2023-04-17T23:19:58.094Z,7.07
2023-04-17T23:22:26.440Z,9.02
2023-04-17T23:24:54.752Z,10.02
2023-04-17T23:27:24.410Z,3.03
2023-04-17T23:29:52.755Z,8.83
2023-04-17T23:32:21.177Z,11.07
2023-04-17T23:34:49.423Z,9.15
2023-04-17T23:37:17.765Z,9.60
2023-04-17T23:39:46.024Z,11.77
2023-04-17T23:42:14.434Z,10.07
2023-04-17T23:44:44.084Z,11.80
2023-04-17T23:47:13.878Z,12.27
2023-04-17T23:49:42.108Z,11.70
2023-04-17T23:52:10.359Z,14.15
2023-04-17T23:54:38.623Z,10.75
2023-04-17T23:57:06.961Z,11.27
2023-04-17T23:59:35.822Z,11.10
